La Feria, Texas
Current Conditions -  °F | °C
As of 4:15 AM on Sunday 26 Oct 2014 (Local Time) from KT65 Reporting Station
Clear Clear  
Wind Chill: 66°   Ceiling: Unl
Heat Index: 66°   Visibility: 7mi
Dew Point: 63°   Wind: 3mph
Humidity: 90%   Direction: 160°SSE
Pressure: 30.04"   Gusts: NA
Location:  26.16°N, 97.82°W
Report Text: KT65 260915Z AUTO 16003KT 7SM CLR 19/17 A3004 RMK AO2 T01870170
Loading
Personal Weather Stations






























Interactive Weather Map
Tropical Storm Tracking
New forecast layout! Learn more

10-Day Weather Forecast

Advertisements
Track Severe Weather on mobile